createdAt,value
2022-10-07T00:01:13.704Z,99.90
2022-10-07T00:03:41.151Z,99.90
2022-10-07T00:06:11.350Z,99.90
2022-10-07T00:08:39.385Z,99.90
2022-10-07T00:11:08.982Z,99.90
2022-10-07T00:13:38.966Z,99.90
2022-10-07T00:16:08.227Z,99.90
2022-10-07T00:18:36.726Z,99.90
2022-10-07T00:21:06.125Z,99.90
2022-10-07T00:23:33.105Z,99.90
2022-10-07T00:26:01.743Z,99.90
2022-10-07T00:28:30.409Z,99.90
2022-10-07T00:31:01.943Z,99.90
2022-10-07T00:33:34.551Z,99.90
2022-10-07T00:36:01.701Z,99.90
2022-10-07T00:38:28.615Z,99.90
2022-10-07T00:40:55.587Z,99.90
2022-10-07T00:43:26.312Z,99.90
2022-10-07T00:45:57.613Z,99.90
2022-10-07T00:48:29.180Z,99.90
2022-10-07T00:50:59.248Z,99.90
2022-10-07T00:53:30.327Z,99.90
2022-10-07T00:56:01.726Z,99.90
2022-10-07T00:58:33.160Z,99.90
2022-10-07T01:01:00.128Z,99.90
2022-10-07T01:03:27.544Z,99.90
2022-10-07T01:05:54.881Z,99.90
2022-10-07T01:08:23.471Z,99.90
2022-10-07T01:11:28.785Z,99.90
2022-10-07T01:14:20.172Z,99.90
2022-10-07T01:17:00.826Z,99.90
2022-10-07T01:19:53.846Z,99.90
2022-10-07T01:22:33.012Z,99.90
2022-10-07T01:25:24.643Z,99.90
2022-10-07T01:27:58.580Z,99.90
2022-10-07T01:30:25.709Z,99.90
2022-10-07T01:33:01.465Z,99.90
2022-10-07T01:35:33.971Z,99.90
2022-10-07T01:38:08.015Z,99.90
2022-10-07T01:40:48.603Z,99.90
2022-10-07T01:43:18.897Z,99.90
2022-10-07T01:45:47.423Z,99.90
2022-10-07T01:48:14.937Z,99.90
2022-10-07T01:50:42.209Z,99.90
2022-10-07T01:53:37.856Z,99.90
2022-10-07T01:56:21.173Z,99.90
2022-10-07T01:59:42.658Z,99.90
2022-10-07T02:02:30.980Z,99.90
2022-10-07T02:05:03.764Z,99.90
2022-10-07T02:07:49.117Z,99.90
2022-10-07T02:10:27.846Z,99.90
2022-10-07T02:13:12.553Z,99.90
2022-10-07T02:16:12.664Z,99.90
2022-10-07T02:18:41.547Z,99.90
2022-10-07T02:21:09.758Z,99.90
2022-10-07T02:23:40.565Z,99.90
2022-10-07T02:26:08.571Z,99.90
2022-10-07T02:28:40.440Z,99.90
2022-10-07T02:31:10.476Z,99.90
2022-10-07T02:33:38.525Z,99.90
2022-10-07T02:36:11.977Z,99.90
2022-10-07T02:38:39.750Z,99.90
2022-10-07T02:41:31.217Z,99.90
2022-10-07T02:44:18.276Z,99.90
2022-10-07T02:46:53.811Z,99.90
2022-10-07T02:49:23.368Z,99.90
2022-10-07T02:52:23.775Z,99.90
2022-10-07T02:55:00.557Z,99.90
2022-10-07T02:57:31.044Z,99.90
2022-10-07T03:00:01.105Z,99.90
2022-10-07T03:02:50.772Z,99.90
2022-10-07T03:05:20.378Z,99.90
2022-10-07T03:08:08.230Z,99.90
2022-10-07T03:10:35.083Z,99.90
2022-10-07T03:13:04.939Z,99.90
2022-10-07T03:15:32.893Z,99.90
2022-10-07T03:17:59.750Z,99.90
2022-10-07T03:20:26.671Z,99.90
2022-10-07T03:22:53.437Z,99.90
2022-10-07T03:25:20.286Z,99.90
2022-10-07T03:27:48.651Z,99.90
2022-10-07T03:30:15.535Z,99.90
2022-10-07T03:32:42.387Z,99.90
2022-10-07T03:35:09.510Z,99.90
2022-10-07T03:37:37.040Z,99.90
2022-10-07T03:40:04.583Z,99.90
2022-10-07T03:42:31.409Z,99.90
2022-10-07T03:44:58.172Z,99.90
2022-10-07T03:47:25.132Z,99.90
2022-10-07T03:49:51.992Z,99.90
2022-10-07T03:52:18.887Z,99.90
2022-10-07T03:54:45.819Z,99.90
2022-10-07T03:57:31.162Z,99.90
2022-10-07T03:59:58.811Z,99.90
2022-10-07T04:02:25.678Z,99.90
2022-10-07T04:04:52.814Z,99.90
2022-10-07T04:07:22.775Z,99.90
2022-10-07T04:09:49.759Z,99.90
2022-10-07T04:12:16.733Z,99.90
2022-10-07T04:14:43.613Z,99.90
2022-10-07T04:17:10.499Z,99.90
2022-10-07T04:19:37.506Z,99.90
2022-10-07T04:22:08.815Z,99.90
2022-10-07T04:24:36.297Z,99.90
2022-10-07T04:27:06.469Z,99.90
2022-10-07T04:29:38.827Z,99.90
2022-10-07T04:32:06.040Z,99.90
2022-10-07T04:34:32.867Z,99.90
2022-10-07T04:37:01.256Z,99.90
2022-10-07T04:39:48.957Z,99.90
2022-10-07T04:42:33.737Z,99.90
2022-10-07T04:45:00.583Z,99.90
2022-10-07T04:47:27.491Z,99.90
2022-10-07T04:49:54.398Z,99.90
2022-10-07T04:52:21.221Z,99.90
2022-10-07T04:54:48.016Z,99.90
2022-10-07T04:57:14.995Z,99.90
2022-10-07T04:59:42.997Z,99.90
2022-10-07T05:02:10.284Z,99.90
2022-10-07T05:04:37.269Z,99.90
2022-10-07T05:07:04.746Z,99.90
2022-10-07T05:09:31.590Z,99.90
2022-10-07T05:11:58.432Z,99.90
2022-10-07T05:14:25.783Z,99.90
2022-10-07T05:16:54.234Z,99.90
2022-10-07T05:19:21.105Z,99.90
2022-10-07T05:21:47.933Z,99.90
2022-10-07T05:24:14.815Z,99.90
2022-10-07T05:26:41.640Z,99.90
2022-10-07T05:29:09.290Z,99.90
2022-10-07T05:31:36.225Z,99.90
2022-10-07T05:34:03.246Z,99.90
2022-10-07T05:36:30.132Z,99.90
2022-10-07T05:39:00.062Z,99.90
2022-10-07T05:41:29.705Z,99.90
2022-10-07T05:43:56.607Z,99.90
2022-10-07T05:46:23.957Z,99.90
2022-10-07T05:48:52.719Z,99.90
2022-10-07T05:51:20.928Z,99.90
2022-10-07T05:53:48.273Z,99.90
2022-10-07T05:56:17.870Z,99.90
2022-10-07T05:58:45.442Z,99.90
2022-10-07T06:01:24.136Z,99.90
2022-10-07T06:03:53.267Z,99.90
2022-10-07T06:06:20.669Z,99.90
2022-10-07T06:08:48.219Z,99.90
2022-10-07T06:11:36.270Z,99.90
2022-10-07T06:14:04.380Z,99.90
2022-10-07T06:16:31.801Z,99.90
2022-10-07T06:18:59.858Z,99.90
2022-10-07T06:21:28.308Z,99.90
2022-10-07T06:23:58.006Z,99.90
2022-10-07T06:26:24.916Z,99.90
2022-10-07T06:28:51.826Z,99.90
2022-10-07T06:31:25.596Z,99.90
2022-10-07T06:33:53.139Z,99.90
2022-10-07T06:36:20.075Z,99.90
2022-10-07T06:38:52.315Z,99.90
2022-10-07T06:41:19.433Z,99.90
2022-10-07T06:43:47.561Z,99.90
2022-10-07T06:46:19.460Z,99.90
2022-10-07T06:48:46.852Z,99.90
2022-10-07T06:51:16.249Z,99.90
2022-10-07T06:53:43.760Z,99.90
2022-10-07T06:56:13.496Z,99.90
2022-10-07T06:58:40.355Z,99.90
2022-10-07T07:01:07.386Z,99.90
2022-10-07T07:03:34.210Z,99.90
2022-10-07T07:06:02.137Z,99.90
2022-10-07T07:08:32.324Z,99.90
2022-10-07T07:11:04.155Z,99.90
2022-10-07T07:13:31.022Z,99.90
2022-10-07T07:15:59.888Z,99.90
2022-10-07T07:18:26.835Z,99.90
2022-10-07T07:20:53.728Z,99.90
2022-10-07T07:23:20.572Z,99.90
2022-10-07T07:25:47.435Z,99.90
2022-10-07T07:28:16.132Z,99.90
2022-10-07T07:30:43.226Z,99.90
2022-10-07T07:33:10.277Z,99.90
2022-10-07T07:35:41.460Z,99.90
2022-10-07T07:38:09.353Z,99.90
2022-10-07T07:40:38.143Z,99.90
2022-10-07T07:43:06.559Z,99.90
2022-10-07T07:45:36.794Z,99.90
2022-10-07T07:48:04.607Z,99.90
2022-10-07T07:50:31.513Z,99.90
2022-10-07T07:53:01.130Z,99.90
2022-10-07T07:55:28.777Z,99.90
2022-10-07T07:57:55.669Z,99.90
2022-10-07T08:00:22.619Z,99.90
2022-10-07T08:02:49.613Z,99.90
2022-10-07T08:05:20.205Z,99.90
2022-10-07T08:07:51.926Z,99.90
2022-10-07T08:10:18.760Z,99.90
2022-10-07T08:12:45.646Z,99.90
2022-10-07T08:15:12.546Z,99.90
2022-10-07T08:17:39.568Z,99.90
2022-10-07T08:20:06.884Z,99.90
2022-10-07T08:22:33.736Z,99.90
2022-10-07T08:25:00.863Z,99.90
2022-10-07T08:27:28.427Z,99.90
2022-10-07T08:29:55.333Z,99.90
2022-10-07T08:32:22.284Z,99.90
2022-10-07T08:34:49.085Z,99.90
2022-10-07T08:37:15.995Z,99.90
2022-10-07T08:39:42.780Z,99.90
2022-10-07T08:42:19.544Z,99.90
2022-10-07T08:44:49.966Z,99.90
2022-10-07T08:47:39.888Z,99.90
2022-10-07T08:50:19.242Z,99.90
2022-10-07T08:53:00.395Z,99.90
2022-10-07T08:55:55.334Z,99.90
2022-10-07T08:58:44.374Z,99.90
2022-10-07T09:01:33.031Z,99.90
2022-10-07T09:04:15.969Z,99.90
2022-10-07T09:06:54.350Z,99.90
2022-10-07T09:09:56.837Z,99.90
2022-10-07T09:13:12.164Z,99.90
2022-10-07T09:15:48.376Z,99.90
2022-10-07T09:18:35.510Z,99.90
2022-10-07T09:21:12.518Z,99.90
2022-10-07T09:23:40.137Z,99.90
2022-10-07T09:26:16.913Z,99.90
2022-10-07T09:28:44.789Z,99.90
2022-10-07T09:31:15.270Z,99.90
2022-10-07T09:33:46.204Z,99.90
2022-10-07T09:36:18.368Z,99.90
2022-10-07T09:38:48.169Z,99.90
2022-10-07T09:41:35.644Z,99.90
2022-10-07T09:44:26.432Z,99.90
2022-10-07T09:47:12.475Z,99.90
2022-10-07T09:49:45.470Z,99.90
2022-10-07T09:52:24.893Z,99.90
2022-10-07T09:54:55.403Z,99.90
2022-10-07T09:57:35.594Z,99.90
2022-10-07T10:00:22.440Z,99.90
2022-10-07T10:03:05.751Z,99.90
2022-10-07T10:05:50.645Z,99.90
2022-10-07T10:08:18.138Z,99.90
2022-10-07T10:10:57.835Z,99.90
2022-10-07T10:13:38.125Z,99.90
2022-10-07T10:16:26.113Z,99.90
2022-10-07T10:19:02.534Z,99.90
2022-10-07T10:21:40.888Z,99.90
2022-10-07T10:24:15.447Z,99.90
2022-10-07T10:27:04.340Z,99.90
2022-10-07T10:29:42.165Z,99.90
2022-10-07T10:33:20.638Z,99.90
2022-10-07T10:35:54.599Z,99.90
2022-10-07T10:38:39.939Z,99.90
2022-10-07T10:41:45.698Z,99.90
2022-10-07T10:44:51.022Z,99.90
2022-10-07T10:47:26.019Z,99.90
2022-10-07T10:49:54.392Z,99.90
2022-10-07T10:52:45.470Z,99.90
2022-10-07T10:55:51.123Z,99.90
2022-10-07T10:58:44.983Z,99.90
2022-10-07T11:01:36.589Z,99.90
2022-10-07T11:04:28.709Z,99.90
2022-10-07T11:07:02.618Z,99.90
2022-10-07T11:09:43.528Z,99.90
2022-10-07T11:12:33.929Z,99.90
2022-10-07T11:15:22.197Z,99.80
2022-10-07T11:17:53.599Z,99.50
2022-10-07T11:20:27.556Z,99.70
2022-10-07T11:23:03.331Z,99.50
2022-10-07T11:25:39.061Z,99.90
2022-10-07T11:28:15.245Z,99.90
2022-10-07T11:31:24.137Z,99.90
2022-10-07T11:34:04.779Z,99.90
2022-10-07T11:37:03.573Z,99.90
2022-10-07T11:39:30.707Z,99.90
2022-10-07T11:42:12.505Z,99.90
2022-10-07T11:44:58.073Z,99.90
2022-10-07T11:47:33.148Z,99.90
2022-10-07T11:50:07.869Z,99.90
2022-10-07T11:52:41.807Z,99.70
2022-10-07T11:55:18.221Z,99.70
2022-10-07T11:57:54.073Z,99.90
2022-10-07T12:00:29.338Z,99.90
2022-10-07T12:02:57.692Z,99.90
2022-10-07T12:05:36.823Z,99.90
2022-10-07T12:08:31.654Z,99.90
2022-10-07T12:11:14.668Z,99.90
2022-10-07T12:13:47.404Z,99.90
2022-10-07T12:16:43.217Z,99.90
2022-10-07T12:19:12.958Z,99.90
2022-10-07T12:22:04.380Z,99.90
2022-10-07T12:24:38.439Z,99.20
2022-10-07T12:27:17.884Z,98.30
2022-10-07T12:29:59.748Z,98.60
2022-10-07T12:33:01.082Z,99.10
2022-10-07T12:35:36.731Z,99.60
2022-10-07T12:38:13.780Z,99.20
2022-10-07T12:40:42.415Z,99.00
2022-10-07T12:43:21.694Z,98.90
2022-10-07T12:45:48.746Z,98.20
2022-10-07T12:48:20.671Z,98.80
2022-10-07T12:50:50.902Z,99.40
2022-10-07T12:53:19.262Z,99.90
2022-10-07T12:55:53.129Z,99.90
2022-10-07T12:59:08.174Z,99.90
2022-10-07T13:01:44.851Z,99.90
2022-10-07T13:04:44.198Z,99.90
2022-10-07T13:07:52.570Z,99.90
2022-10-07T13:10:38.235Z,99.90
2022-10-07T13:13:11.957Z,99.90
2022-10-07T13:15:55.402Z,99.90
2022-10-07T13:18:50.485Z,99.60
2022-10-07T13:21:23.303Z,99.90
2022-10-07T13:23:55.552Z,99.90
2022-10-07T13:26:25.966Z,99.90
2022-10-07T13:28:55.871Z,99.90
2022-10-07T13:31:24.142Z,99.90
2022-10-07T13:33:52.277Z,99.90
2022-10-07T13:36:31.622Z,99.90
2022-10-07T13:39:17.787Z,99.90
2022-10-07T13:41:47.741Z,99.90
2022-10-07T13:44:18.353Z,99.90
2022-10-07T13:47:04.889Z,99.90
2022-10-07T13:49:53.302Z,99.90
2022-10-07T13:52:36.948Z,99.60
2022-10-07T13:55:39.203Z,98.90
2022-10-07T13:58:06.737Z,96.90
2022-10-07T14:00:40.386Z,96.60
2022-10-07T14:03:15.413Z,96.00
2022-10-07T14:05:52.771Z,96.60
2022-10-07T14:08:22.499Z,97.20
2022-10-07T14:11:00.855Z,97.60
2022-10-07T14:13:29.144Z,98.60
2022-10-07T14:15:57.678Z,98.50
2022-10-07T14:18:29.569Z,98.20
2022-10-07T14:21:11.071Z,97.60
2022-10-07T14:23:38.377Z,97.70
2022-10-07T14:26:09.819Z,98.50
2022-10-07T14:28:38.822Z,98.20
2022-10-07T14:31:27.487Z,98.50
2022-10-07T14:34:16.251Z,98.10
2022-10-07T14:37:06.178Z,98.40
2022-10-07T14:39:37.934Z,99.20
2022-10-07T14:42:23.921Z,99.80
2022-10-07T14:44:51.994Z,99.90
2022-10-07T14:47:38.481Z,99.90
2022-10-07T14:50:05.887Z,99.90
2022-10-07T14:52:44.931Z,99.90
2022-10-07T14:55:28.353Z,99.90
2022-10-07T14:57:55.314Z,99.90
2022-10-07T15:00:25.193Z,99.90
2022-10-07T15:02:53.282Z,99.90
2022-10-07T15:05:21.160Z,99.90
2022-10-07T15:07:48.657Z,99.90
2022-10-07T15:10:18.699Z,99.90
2022-10-07T15:12:46.102Z,99.90
2022-10-07T15:15:14.147Z,99.90
2022-10-07T15:17:41.990Z,99.90
2022-10-07T15:20:11.069Z,99.90
2022-10-07T15:22:38.355Z,99.90
2022-10-07T15:25:10.396Z,99.90
2022-10-07T15:27:37.960Z,99.90
2022-10-07T15:30:07.325Z,99.90
2022-10-07T15:32:34.587Z,99.90
2022-10-07T15:35:01.826Z,99.90
2022-10-07T15:37:29.026Z,99.90
2022-10-07T15:39:56.151Z,99.90
2022-10-07T15:42:26.225Z,99.90
2022-10-07T15:44:53.504Z,99.90
2022-10-07T15:47:20.866Z,99.90
2022-10-07T15:49:47.975Z,99.90
2022-10-07T15:52:14.948Z,99.90
2022-10-07T15:54:41.836Z,99.90
2022-10-07T15:57:09.091Z,99.90
2022-10-07T15:59:36.029Z,99.90
2022-10-07T16:02:04.362Z,99.90
2022-10-07T16:04:31.606Z,99.90
2022-10-07T16:06:59.520Z,99.90
2022-10-07T16:09:26.692Z,99.90
2022-10-07T16:11:54.055Z,99.90
2022-10-07T16:14:20.970Z,99.90
2022-10-07T16:16:47.788Z,99.90
2022-10-07T16:19:14.913Z,99.90
2022-10-07T16:21:43.379Z,99.90
2022-10-07T16:24:20.641Z,99.90
2022-10-07T16:26:50.657Z,99.90
2022-10-07T16:29:41.313Z,99.90
2022-10-07T16:32:12.783Z,99.90
2022-10-07T16:34:43.572Z,99.90
2022-10-07T16:37:11.640Z,99.90
2022-10-07T16:39:38.650Z,99.90
2022-10-07T16:42:05.657Z,99.90
2022-10-07T16:44:32.563Z,99.90
2022-10-07T16:47:00.309Z,99.90
2022-10-07T16:49:29.385Z,99.90
2022-10-07T16:51:57.668Z,99.90
2022-10-07T16:54:25.236Z,99.90
2022-10-07T16:56:52.714Z,99.90
2022-10-07T16:59:23.662Z,99.90
2022-10-07T17:01:56.272Z,99.90
2022-10-07T17:04:24.902Z,99.90
2022-10-07T17:06:52.070Z,99.90
2022-10-07T17:09:19.043Z,99.90
2022-10-07T17:11:46.670Z,99.90
2022-10-07T17:14:18.993Z,99.90
2022-10-07T17:16:51.203Z,99.90
2022-10-07T17:19:22.200Z,99.90
2022-10-07T17:21:50.579Z,99.90
2022-10-07T17:24:19.087Z,99.90
2022-10-07T17:26:47.114Z,99.90
2022-10-07T17:29:18.282Z,99.90
2022-10-07T17:31:48.340Z,99.90
2022-10-07T17:34:16.204Z,99.90
2022-10-07T17:36:47.123Z,99.90
2022-10-07T17:39:14.429Z,99.90
2022-10-07T17:41:41.358Z,99.90
2022-10-07T17:44:11.691Z,99.90
2022-10-07T17:46:41.394Z,99.90
2022-10-07T17:49:13.141Z,99.90
2022-10-07T17:51:42.699Z,99.90
2022-10-07T17:54:10.960Z,99.90
2022-10-07T17:56:38.028Z,99.90
2022-10-07T17:59:05.460Z,99.90
2022-10-07T18:01:34.442Z,99.90
2022-10-07T18:04:03.875Z,99.90
2022-10-07T18:06:33.740Z,99.90
2022-10-07T18:09:04.962Z,99.90
2022-10-07T18:11:50.677Z,99.90
2022-10-07T18:14:36.712Z,99.90
2022-10-07T18:17:04.438Z,99.90
2022-10-07T18:19:31.286Z,99.90
2022-10-07T18:21:58.365Z,99.90
2022-10-07T18:24:28.699Z,99.90
2022-10-07T18:26:59.218Z,99.90
2022-10-07T18:29:28.945Z,99.90
2022-10-07T18:31:58.436Z,99.90
2022-10-07T18:34:25.556Z,99.90
2022-10-07T18:36:56.214Z,99.90
2022-10-07T18:39:24.067Z,99.90
2022-10-07T18:41:51.310Z,99.90
2022-10-07T18:44:18.448Z,99.90
2022-10-07T18:46:45.514Z,99.90
2022-10-07T18:49:15.504Z,99.90
2022-10-07T18:51:42.931Z,99.90
2022-10-07T18:54:10.488Z,99.90
2022-10-07T18:56:41.169Z,99.90
2022-10-07T18:59:10.095Z,99.90
2022-10-07T19:01:37.859Z,99.90
2022-10-07T19:04:06.364Z,99.90
2022-10-07T19:06:36.174Z,99.90
2022-10-07T19:09:07.881Z,99.90
2022-10-07T19:11:35.553Z,99.90
2022-10-07T19:14:02.457Z,99.90
2022-10-07T19:16:44.035Z,99.90
2022-10-07T19:19:17.262Z,99.90
2022-10-07T19:21:49.633Z,99.90
2022-10-07T19:24:17.221Z,99.90
2022-10-07T19:26:48.410Z,99.90
2022-10-07T19:29:18.127Z,99.90
2022-10-07T19:31:48.656Z,99.90
2022-10-07T19:34:19.022Z,99.90
2022-10-07T19:36:47.164Z,99.90
2022-10-07T19:39:16.615Z,99.90
2022-10-07T19:41:44.131Z,99.90
2022-10-07T19:44:11.450Z,99.90
2022-10-07T19:46:39.027Z,99.90
2022-10-07T19:49:07.152Z,99.90
2022-10-07T19:51:35.251Z,99.90
2022-10-07T19:54:03.699Z,99.90
2022-10-07T19:56:37.521Z,99.90
2022-10-07T19:59:09.749Z,99.90
2022-10-07T20:01:39.505Z,99.90
2022-10-07T20:04:13.403Z,99.90
2022-10-07T20:06:41.487Z,99.90
2022-10-07T20:09:11.095Z,99.90
2022-10-07T20:11:37.964Z,99.90
2022-10-07T20:14:06.082Z,99.90
2022-10-07T20:16:34.289Z,99.90
2022-10-07T20:19:05.878Z,99.90
2022-10-07T20:21:35.760Z,99.90
2022-10-07T20:24:03.433Z,99.90
2022-10-07T20:26:32.457Z,99.90
2022-10-07T20:29:00.909Z,99.90
2022-10-07T20:31:30.624Z,99.90
2022-10-07T20:33:59.590Z,99.90
2022-10-07T20:36:29.827Z,99.90
2022-10-07T20:39:17.218Z,99.90
2022-10-07T20:42:02.627Z,99.90
2022-10-07T20:44:29.716Z,99.90
2022-10-07T20:47:00.135Z,99.90
2022-10-07T20:49:28.777Z,99.90
2022-10-07T20:52:05.211Z,99.90
2022-10-07T20:54:33.219Z,99.90
2022-10-07T20:57:00.520Z,99.90
2022-10-07T20:59:30.126Z,99.90
2022-10-07T21:01:57.969Z,99.90
2022-10-07T21:04:31.291Z,99.90
2022-10-07T21:06:58.203Z,99.90
2022-10-07T21:09:26.151Z,99.90
2022-10-07T21:11:54.733Z,99.90
2022-10-07T21:14:22.683Z,99.90
2022-10-07T21:16:49.927Z,99.90
2022-10-07T21:19:17.148Z,99.90
2022-10-07T21:21:44.205Z,99.90
2022-10-07T21:24:11.398Z,99.90
2022-10-07T21:26:38.347Z,99.90
2022-10-07T21:29:08.091Z,99.90
2022-10-07T21:31:35.759Z,99.90
2022-10-07T21:34:07.870Z,99.90
2022-10-07T21:36:40.444Z,99.90
2022-10-07T21:39:07.706Z,99.90
2022-10-07T21:41:38.512Z,99.90
2022-10-07T21:44:07.732Z,99.90
2022-10-07T21:46:36.670Z,99.90
2022-10-07T21:49:06.130Z,99.90
2022-10-07T21:51:34.115Z,99.90
2022-10-07T21:54:02.314Z,99.90
2022-10-07T21:56:30.727Z,99.90
2022-10-07T21:59:00.634Z,99.90
2022-10-07T22:01:28.154Z,99.90
2022-10-07T22:03:57.489Z,99.90
2022-10-07T22:06:45.865Z,99.90
2022-10-07T22:09:13.935Z,99.90
2022-10-07T22:11:40.941Z,99.90
2022-10-07T22:14:12.269Z,99.90
2022-10-07T22:16:39.997Z,99.90
2022-10-07T22:19:07.149Z,99.90
2022-10-07T22:21:35.879Z,99.90
2022-10-07T22:24:05.111Z,99.90
2022-10-07T22:26:37.957Z,99.90
2022-10-07T22:29:06.178Z,99.90
2022-10-07T22:31:33.096Z,99.90
2022-10-07T22:34:00.755Z,99.90
2022-10-07T22:36:29.130Z,99.90
2022-10-07T22:38:59.834Z,99.90
2022-10-07T22:41:29.729Z,99.90
2022-10-07T22:43:56.599Z,99.90
2022-10-07T22:46:27.637Z,99.90
2022-10-07T22:48:56.597Z,99.90
2022-10-07T22:51:27.515Z,99.90
2022-10-07T22:53:55.581Z,99.90
2022-10-07T22:56:24.192Z,99.90
2022-10-07T22:59:00.101Z,99.90
2022-10-07T23:01:29.520Z,99.90
2022-10-07T23:03:56.786Z,99.90
2022-10-07T23:06:24.004Z,99.90
2022-10-07T23:08:50.846Z,99.90
2022-10-07T23:11:23.768Z,99.90
2022-10-07T23:13:51.331Z,99.90
2022-10-07T23:16:23.998Z,99.90
2022-10-07T23:18:53.814Z,99.90
2022-10-07T23:21:21.905Z,99.90
2022-10-07T23:23:52.036Z,99.90
2022-10-07T23:26:24.164Z,99.90
2022-10-07T23:28:52.393Z,99.90
2022-10-07T23:31:21.862Z,99.90
2022-10-07T23:33:49.899Z,99.90
2022-10-07T23:36:20.020Z,99.90
2022-10-07T23:38:47.972Z,99.90
2022-10-07T23:41:21.094Z,99.90
2022-10-07T23:43:49.720Z,99.90
2022-10-07T23:46:17.821Z,99.90
2022-10-07T23:48:44.751Z,99.90
2022-10-07T23:51:14.028Z,99.90
2022-10-07T23:53:40.989Z,99.90
2022-10-07T23:56:08.210Z,99.90
2022-10-07T23:58:36.185Z,99.90
